Time;durP1;ratioP1;P1;durP2;ratioP2;P2;SDS_P1;SDS_P2;PMS_P1;PMS_P2;Temp;Humidity;BMP_temperature;BMP_pressure;BME280_temperature;BME280_humidity;BME280_pressure;Samples;Min_cycle;Max_cycle;Signal;HPM_P1;HPM_P2
2023/10/24 00:01:19;;;;;;;2.03;1.92;;;;;;;;;;10375243;28;20273;-76
2023/10/24 00:06:20;;;;;;;2.58;2.38;;;;;;;;;;10376044;28;20246;-75
2023/10/24 00:11:21;;;;;;;3.03;2.30;;;;;;;;;;10377480;28;20219;-76
2023/10/24 00:16:22;;;;;;;2.63;2.53;;;;;;;;;;10382698;28;20694;-75
2023/10/24 00:21:23;;;;;;;3.67;1.90;;;;;;;;;;10374227;28;20215;-76
2023/10/24 00:26:24;;;;;;;2.60;2.40;;;;;;;;;;10396945;28;20239;-75
2023/10/24 00:31:27;;;;;;;2.50;2.08;;;;;;;;;;10391141;28;20211;-74
2023/10/24 00:36:28;;;;;;;2.22;2.13;;;;;;;;;;10361286;28;20705;-75
2023/10/24 00:41:29;;;;;;;2.97;2.15;;;;;;;;;;10380363;28;20423;-76
2023/10/24 00:46:30;;;;;;;6.82;2.85;;;;;;;;;;10380608;28;20215;-75
2023/10/24 00:51:32;;;;;;;6.93;2.33;;;;;;;;;;10363544;28;20234;-76
2023/10/24 00:56:33;;;;;;;3.08;2.45;;;;;;;;;;10383048;28;20212;-76
2023/10/24 01:01:34;;;;;;;2.70;2.42;;;;;;;;;;10379028;28;20684;-75
2023/10/24 01:06:35;;;;;;;2.85;2.42;;;;;;;;;;10379248;28;20211;-75
2023/10/24 01:11:37;;;;;;;2.28;2.13;;;;;;;;;;10381567;28;20216;-75
2023/10/24 01:16:43;;;;;;;3.65;2.50;;;;;;;;;;10384707;28;20287;-75
2023/10/24 01:21:45;;;;;;;1.92;1.83;;;;;;;;;;10373123;28;20211;-75
2023/10/24 01:26:46;;;;;;;3.97;2.15;;;;;;;;;;10368261;28;20258;-76
2023/10/24 01:31:47;;;;;;;4.13;2.45;;;;;;;;;;10369516;28;20223;-75
2023/10/24 01:36:48;;;;;;;2.55;2.40;;;;;;;;;;10370966;28;20223;-75
2023/10/24 01:41:49;;;;;;;3.80;2.63;;;;;;;;;;10374249;28;20216;-75
2023/10/24 01:46:51;;;;;;;2.28;2.17;;;;;;;;;;10368461;28;20223;-74
2023/10/24 01:51:52;;;;;;;3.17;2.00;;;;;;;;;;10379445;28;20339;-75
2023/10/24 01:56:53;;;;;;;2.60;2.13;;;;;;;;;;10369617;28;20302;-76
2023/10/24 02:01:54;;;;;;;2.17;2.08;;;;;;;;;;10372632;28;20216;-74
2023/10/24 02:06:57;;;;;;;2.20;2.20;;;;;;;;;;10371402;28;20230;-74
2023/10/24 02:12:01;;;;;;;4.57;2.20;;;;;;;;;;10366531;28;20224;-75
2023/10/24 02:17:02;;;;;;;3.58;2.33;;;;;;;;;;10374288;28;20590;-74
2023/10/24 02:22:04;;;;;;;2.40;2.30;;;;;;;;;;10359459;28;20686;-75
2023/10/24 02:27:05;;;;;;;2.17;2.00;;;;;;;;;;10348112;28;21296;-76
2023/10/24 02:32:06;;;;;;;2.65;2.28;;;;;;;;;;10360521;28;20302;-74
2023/10/24 02:37:07;;;;;;;2.20;2.10;;;;;;;;;;10372976;28;20598;-74
2023/10/24 02:42:08;;;;;;;6.22;2.40;;;;;;;;;;10374713;28;20218;-74
2023/10/24 02:47:09;;;;;;;4.22;2.15;;;;;;;;;;10380450;28;20219;-75
2023/10/24 02:52:11;;;;;;;2.67;2.50;;;;;;;;;;10386201;28;20647;-74
2023/10/24 02:57:12;;;;;;;2.03;1.95;;;;;;;;;;10364326;28;20216;-74
2023/10/24 03:02:14;;;;;;;2.70;2.50;;;;;;;;;;10370836;28;20239;-76
2023/10/24 03:07:16;;;;;;;2.65;2.22;;;;;;;;;;10388800;28;20703;-74
2023/10/24 03:12:17;;;;;;;5.15;2.20;;;;;;;;;;10369986;28;20341;-72
2023/10/24 03:17:18;;;;;;;3.20;1.83;;;;;;;;;;10374427;28;20600;-74
2023/10/24 03:22:19;;;;;;;4.93;2.30;;;;;;;;;;10370003;28;20693;-75
2023/10/24 03:27:20;;;;;;;1.95;1.77;;;;;;;;;;10374461;28;20231;-74
2023/10/24 03:32:21;;;;;;;3.50;2.22;;;;;;;;;;10362668;28;20216;-74
2023/10/24 03:37:22;;;;;;;3.95;2.45;;;;;;;;;;10375998;28;20211;-74
2023/10/24 03:42:23;;;;;;;4.30;2.42;;;;;;;;;;10376357;28;20216;-76
2023/10/24 03:47:24;;;;;;;5.47;3.33;;;;;;;;;;10379915;28;20311;-77
2023/10/24 03:52:25;;;;;;;8.70;3.25;;;;;;;;;;10378883;28;20219;-77
2023/10/24 03:57:26;;;;;;;8.00;2.90;;;;;;;;;;10396046;28;20618;-77
2023/10/24 04:02:27;;;;;;;2.60;2.40;;;;;;;;;;10364952;28;20211;-77
2023/10/24 04:07:28;;;;;;;2.00;1.90;;;;;;;;;;10377239;28;20390;-77
2023/10/24 04:12:29;;;;;;;10.77;2.88;;;;;;;;;;10374655;28;20293;-77
2023/10/24 04:17:30;;;;;;;2.65;2.53;;;;;;;;;;10365856;28;20397;-78
2023/10/24 04:22:31;;;;;;;2.55;2.25;;;;;;;;;;10437210;28;20214;-77
2023/10/24 04:27:33;;;;;;;3.88;2.33;;;;;;;;;;10460960;28;20397;-74
2023/10/24 04:32:34;;;;;;;2.80;2.13;;;;;;;;;;10428208;28;20205;-75
2023/10/24 04:37:35;;;;;;;2.70;2.20;;;;;;;;;;10447422;28;20203;-74
2023/10/24 04:42:36;;;;;;;3.15;2.83;;;;;;;;;;10448093;28;20206;-74
2023/10/24 04:47:37;;;;;;;4.95;2.47;;;;;;;;;;10438121;28;20250;-75
2023/10/24 04:52:38;;;;;;;10.68;4.22;;;;;;;;;;10460751;28;20211;-75
2023/10/24 04:57:39;;;;;;;3.67;2.55;;;;;;;;;;10462095;28;20355;-76
2023/10/24 05:02:40;;;;;;;2.45;2.17;;;;;;;;;;10454120;28;20226;-75
2023/10/24 05:07:41;;;;;;;7.30;2.33;;;;;;;;;;10462417;28;20494;-74
2023/10/24 05:12:42;;;;;;;2.22;2.00;;;;;;;;;;10456997;28;20297;-74
2023/10/24 05:17:43;;;;;;;6.22;2.50;;;;;;;;;;10442558;28;20243;-75
2023/10/24 05:22:44;;;;;;;5.88;2.58;;;;;;;;;;10459825;28;20210;-78
2023/10/24 05:27:45;;;;;;;2.17;2.08;;;;;;;;;;10461361;28;20221;-75
2023/10/24 05:32:47;;;;;;;3.33;2.17;;;;;;;;;;10448079;28;20206;-75
2023/10/24 05:37:48;;;;;;;3.42;2.55;;;;;;;;;;10418277;28;20419;-74
2023/10/24 05:42:49;;;;;;;2.22;2.13;;;;;;;;;;10439337;28;20210;-76
2023/10/24 05:47:50;;;;;;;7.03;2.85;;;;;;;;;;10448671;28;20403;-75
2023/10/24 05:52:51;;;;;;;5.22;2.83;;;;;;;;;;10449628;28;20688;-76
2023/10/24 05:57:52;;;;;;;6.82;2.50;;;;;;;;;;10446255;28;20217;-75
2023/10/24 06:02:53;;;;;;;3.08;2.80;;;;;;;;;;10442285;28;20207;-75
2023/10/24 06:07:54;;;;;;;2.60;2.40;;;;;;;;;;10460116;28;20217;-76
2023/10/24 06:12:55;;;;;;;3.83;2.72;;;;;;;;;;10426015;28;20699;-75
2023/10/24 06:17:56;;;;;;;2.80;2.60;;;;;;;;;;10434181;28;20221;-76
2023/10/24 06:22:57;;;;;;;3.67;3.05;;;;;;;;;;10434871;28;20227;-76
2023/10/24 06:27:58;;;;;;;5.60;3.17;;;;;;;;;;10423915;28;20234;-75
2023/10/24 06:32:59;;;;;;;3.78;2.70;;;;;;;;;;10448859;28;20210;-75
2023/10/24 06:38:01;;;;;;;3.20;2.85;;;;;;;;;;10423994;28;20222;-76
2023/10/24 06:43:05;;;;;;;2.97;2.78;;;;;;;;;;10450198;28;20222;-75
2023/10/24 06:48:06;;;;;;;2.97;2.78;;;;;;;;;;10433050;28;20479;-75
2023/10/24 06:53:11;;;;;;;3.03;2.28;;;;;;;;;;10436351;28;20206;-76
2023/10/24 06:58:12;;;;;;;2.58;2.47;;;;;;;;;;10425473;28;20232;-77
2023/10/24 07:03:13;;;;;;;3.05;2.70;;;;;;;;;;10437163;28;20216;-76
2023/10/24 07:08:14;;;;;;;3.15;2.47;;;;;;;;;;10422200;28;20356;-75
2023/10/24 07:13:16;;;;;;;4.85;3.15;;;;;;;;;;10429176;28;20214;-75
2023/10/24 07:18:17;;;;;;;3.28;3.08;;;;;;;;;;10407130;28;20237;-75
2023/10/24 07:23:19;;;;;;;4.38;2.35;;;;;;;;;;10451984;28;20240;-75
2023/10/24 07:28:20;;;;;;;3.22;2.97;;;;;;;;;;10453512;28;20225;-73
2023/10/24 07:33:22;;;;;;;2.47;2.38;;;;;;;;;;10435578;28;20216;-74
2023/10/24 07:38:23;;;;;;;4.70;3.05;;;;;;;;;;10437453;28;20214;-74
2023/10/24 07:43:25;;;;;;;2.30;2.10;;;;;;;;;;10429452;28;20547;-73
2023/10/24 07:48:26;;;;;;;2.60;2.50;;;;;;;;;;10450881;28;20222;-73
2023/10/24 07:53:27;;;;;;;3.17;2.90;;;;;;;;;;10442166;28;20282;-73
2023/10/24 07:58:28;;;;;;;3.10;2.97;;;;;;;;;;10439039;28;20687;-73
2023/10/24 08:03:29;;;;;;;4.68;2.88;;;;;;;;;;10441488;28;20272;-72
2023/10/24 08:08:30;;;;;;;2.72;2.50;;;;;;;;;;10447173;28;20207;-73
2023/10/24 08:13:31;;;;;;;4.05;2.97;;;;;;;;;;10450957;28;20220;-73
2023/10/24 08:18:34;;;;;;;3.72;2.53;;;;;;;;;;10438186;28;20309;-72
2023/10/24 08:23:35;;;;;;;3.92;3.13;;;;;;;;;;10455187;28;20211;-72
2023/10/24 08:28:36;;;;;;;3.58;3.08;;;;;;;;;;10456167;28;20246;-72
2023/10/24 08:33:38;;;;;;;3.55;3.25;;;;;;;;;;10429509;28;20440;-73
2023/10/24 08:38:39;;;;;;;3.53;3.10;;;;;;;;;;10438720;28;21114;-73
2023/10/24 08:43:40;;;;;;;4.70;3.08;;;;;;;;;;10423461;28;20621;-74
2023/10/24 08:48:41;;;;;;;6.10;3.05;;;;;;;;;;10433396;28;20332;-75
2023/10/24 08:53:42;;;;;;;4.32;2.85;;;;;;;;;;10436288;28;20626;-74
2023/10/24 08:58:44;;;;;;;2.88;2.63;;;;;;;;;;10446408;28;20255;-74
2023/10/24 09:03:45;;;;;;;4.28;3.00;;;;;;;;;;10407549;28;20671;-74
2023/10/24 09:08:46;;;;;;;4.03;3.17;;;;;;;;;;10426750;28;20213;-74
2023/10/24 09:13:47;;;;;;;4.68;3.15;;;;;;;;;;10432783;28;20845;-73
2023/10/24 09:18:48;;;;;;;2.60;2.40;;;;;;;;;;10441804;28;20210;-75
2023/10/24 09:23:49;;;;;;;4.85;3.15;;;;;;;;;;10435725;28;20584;-73
2023/10/24 09:28:57;;;;;;;4.78;3.13;;;;;;;;;;10446998;28;20225;-72
2023/10/24 09:33:58;;;;;;;4.93;3.30;;;;;;;;;;10429916;28;20211;-72
2023/10/24 09:38:59;;;;;;;3.22;2.90;;;;;;;;;;10433797;28;20213;-72
2023/10/24 09:44:04;;;;;;;3.30;2.53;;;;;;;;;;10420717;28;20587;-72
2023/10/24 09:49:06;;;;;;;3.17;2.72;;;;;;;;;;10444909;28;20257;-73
2023/10/24 09:54:07;;;;;;;10.30;7.47;;;;;;;;;;10433611;28;20918;-73
2023/10/24 09:59:08;;;;;;;3.60;3.40;;;;;;;;;;10436412;28;20267;-71
2023/10/24 10:04:13;;;;;;;24.15;13.85;;;;;;;;;;10455577;28;20206;-72
2023/10/24 10:09:15;;;;;;;5.93;5.05;;;;;;;;;;10426992;28;20566;-72
2023/10/24 10:14:36;;;;;;;6.50;3.05;;;;;;;;;;10454611;28;20481;-72
2023/10/24 10:19:56;;;;;;;7.65;3.10;;;;;;;;;;10425758;28;20583;-74
2023/10/24 10:24:57;;;;;;;6.97;3.42;;;;;;;;;;10420199;28;20223;-75
2023/10/24 10:30:18;;;;;;;3.95;2.97;;;;;;;;;;10433764;28;20584;-74
2023/10/24 10:35:19;;;;;;;4.35;2.75;;;;;;;;;;10415287;28;20704;-73
2023/10/24 10:40:23;;;;;;;4.38;2.65;;;;;;;;;;10422926;28;20186;-73
2023/10/24 10:45:28;;;;;;;2.95;2.70;;;;;;;;;;10427829;28;20206;-76
2023/10/24 10:50:30;;;;;;;3.30;3.00;;;;;;;;;;10434187;28;20218;-73
2023/10/24 10:55:50;;;;;;;4.68;2.63;;;;;;;;;;10428186;28;20218;-73
2023/10/24 11:01:01;;;;;;;2.92;2.65;;;;;;;;;;10439670;28;20233;-73
2023/10/24 11:06:14;;;;;;;3.17;2.38;;;;;;;;;;10428706;28;20210;-73
2023/10/24 11:11:18;;;;;;;3.17;2.97;;;;;;;;;;10446372;28;20218;-73
2023/10/24 11:16:19;;;;;;;4.43;3.25;;;;;;;;;;10432212;28;20836;-72
2023/10/24 11:21:20;;;;;;;3.45;3.20;;;;;;;;;;10460433;28;20210;-72
2023/10/24 11:26:21;;;;;;;3.67;3.47;;;;;;;;;;10415974;28;20220;-73
2023/10/24 11:31:23;;;;;;;4.97;3.80;;;;;;;;;;10442263;28;20556;-72
2023/10/24 11:36:25;;;;;;;6.82;3.45;;;;;;;;;;10439140;28;20279;-72
2023/10/24 11:41:27;;;;;;;3.92;3.42;;;;;;;;;;10456017;28;20283;-74
2023/10/24 11:46:28;;;;;;;4.07;3.67;;;;;;;;;;10453813;28;20210;-72
2023/10/24 11:51:30;;;;;;;4.13;3.80;;;;;;;;;;10440829;28;20218;-74
2023/10/24 11:56:31;;;;;;;5.45;4.05;;;;;;;;;;10456114;28;20224;-72
2023/10/24 12:01:33;;;;;;;4.07;3.85;;;;;;;;;;10425221;28;20207;-71
2023/10/24 12:06:34;;;;;;;8.27;3.92;;;;;;;;;;10441025;28;20759;-71
2023/10/24 12:11:35;;;;;;;4.55;3.30;;;;;;;;;;10450925;28;20218;-73
2023/10/24 12:16:39;;;;;;;4.30;4.10;;;;;;;;;;10426149;28;20308;-71
2023/10/24 12:21:40;;;;;;;4.63;4.32;;;;;;;;;;10443648;28;20203;-72
2023/10/24 12:26:41;;;;;;;4.25;3.95;;;;;;;;;;10424382;28;20269;-74
2023/10/24 12:31:42;;;;;;;4.53;3.85;;;;;;;;;;10418517;28;20218;-74
2023/10/24 12:36:44;;;;;;;5.53;4.65;;;;;;;;;;10451668;28;20799;-74
2023/10/24 12:41:45;;;;;;;7.35;4.55;;;;;;;;;;10437094;28;20324;-74
2023/10/24 12:46:46;;;;;;;7.72;5.28;;;;;;;;;;10434392;28;20213;-73
2023/10/24 12:51:47;;;;;;;4.10;3.72;;;;;;;;;;10454919;28;20220;-72
2023/10/24 12:56:49;;;;;;;5.60;3.92;;;;;;;;;;10434479;28;20214;-73
2023/10/24 13:01:51;;;;;;;5.78;4.07;;;;;;;;;;10438494;28;20214;-74
2023/10/24 13:06:55;;;;;;;9.18;5.13;;;;;;;;;;10437382;28;20206;-73
2023/10/24 13:11:56;;;;;;;4.15;3.80;;;;;;;;;;10451243;28;20712;-72
2023/10/24 13:16:58;;;;;;;4.18;3.28;;;;;;;;;;10438343;28;20222;-72
2023/10/24 13:21:59;;;;;;;5.07;4.57;;;;;;;;;;10433175;28;20202;-72
2023/10/24 13:27:00;;;;;;;4.53;3.88;;;;;;;;;;10422606;28;20303;-72
2023/10/24 13:32:01;;;;;;;4.00;3.70;;;;;;;;;;10444334;28;20228;-74
2023/10/24 13:37:02;;;;;;;5.60;4.05;;;;;;;;;;10430391;28;20240;-74
2023/10/24 13:42:04;;;;;;;5.97;4.32;;;;;;;;;;10451065;28;20237;-74
2023/10/24 13:47:05;;;;;;;5.70;4.38;;;;;;;;;;10445278;28;20216;-74
2023/10/24 13:52:06;;;;;;;5.22;4.75;;;;;;;;;;10429896;28;20319;-73
2023/10/24 13:57:08;;;;;;;5.00;4.70;;;;;;;;;;10457417;28;20289;-72
2023/10/24 14:02:09;;;;;;;4.82;4.47;;;;;;;;;;10440042;28;20214;-73
2023/10/24 14:07:10;;;;;;;4.30;4.05;;;;;;;;;;10423619;28;20213;-72
2023/10/24 14:12:11;;;;;;;10.25;4.40;;;;;;;;;;10454056;28;20261;-73
2023/10/24 14:17:12;;;;;;;8.63;4.38;;;;;;;;;;10443249;28;20218;-74
2023/10/24 14:22:13;;;;;;;4.32;3.92;;;;;;;;;;10436885;28;20660;-72
2023/10/24 14:27:14;;;;;;;4.78;4.07;;;;;;;;;;10431701;28;20226;-73
2023/10/24 14:32:15;;;;;;;4.78;3.75;;;;;;;;;;10436638;28;20716;-73
2023/10/24 14:37:16;;;;;;;4.65;3.60;;;;;;;;;;10432666;28;20207;-73
2023/10/24 14:42:17;;;;;;;18.25;11.77;;;;;;;;;;10429413;28;20216;-73
2023/10/24 14:47:18;;;;;;;9.10;6.07;;;;;;;;;;10431745;28;20730;-75
2023/10/24 14:52:20;;;;;;;6.82;6.22;;;;;;;;;;10443690;28;20221;-73
2023/10/24 14:57:21;;;;;;;6.88;6.28;;;;;;;;;;10433789;28;20218;-73
2023/10/24 15:02:22;;;;;;;5.28;4.78;;;;;;;;;;10427111;28;20214;-74
2023/10/24 15:07:24;;;;;;;3.80;3.33;;;;;;;;;;10416575;28;20210;-75
2023/10/24 15:12:25;;;;;;;11.05;7.13;;;;;;;;;;10442488;28;20222;-73
2023/10/24 15:17:26;;;;;;;4.20;3.95;;;;;;;;;;10429749;28;20221;-74
2023/10/24 15:22:27;;;;;;;4.40;3.75;;;;;;;;;;10410185;28;20226;-73
2023/10/24 15:27:28;;;;;;;6.82;5.32;;;;;;;;;;10412604;28;20763;-72
2023/10/24 15:32:29;;;;;;;3.60;3.40;;;;;;;;;;10437718;28;20222;-74
2023/10/24 15:37:30;;;;;;;2.95;2.85;;;;;;;;;;10427524;28;20211;-74
2023/10/24 15:42:31;;;;;;;4.20;3.53;;;;;;;;;;10430543;28;20225;-74
2023/10/24 15:47:38;;;;;;;3.80;2.75;;;;;;;;;;10436197;28;20268;-75
2023/10/24 15:52:39;;;;;;;3.40;3.30;;;;;;;;;;10428086;28;21727;-75
2023/10/24 15:57:40;;;;;;;3.45;2.70;;;;;;;;;;10424228;28;20232;-74
2023/10/24 16:02:41;;;;;;;2.65;2.55;;;;;;;;;;10441386;28;20214;-74
2023/10/24 16:07:42;;;;;;;4.00;3.63;;;;;;;;;;10428210;28;20690;-73
2023/10/24 16:12:43;;;;;;;3.75;3.40;;;;;;;;;;10436014;28;20221;-74
2023/10/24 16:17:45;;;;;;;6.05;3.20;;;;;;;;;;10449746;28;20259;-73
2023/10/24 16:22:47;;;;;;;3.75;3.45;;;;;;;;;;10445651;28;20680;-74
2023/10/24 16:27:49;;;;;;;4.22;4.00;;;;;;;;;;10459105;28;20237;-73
2023/10/24 16:32:52;;;;;;;4.57;4.28;;;;;;;;;;10429034;28;20391;-73
2023/10/24 16:37:53;;;;;;;5.20;4.57;;;;;;;;;;10439779;28;20226;-73
2023/10/24 16:42:54;;;;;;;5.05;4.60;;;;;;;;;;10442717;28;20372;-74
2023/10/24 16:47:55;;;;;;;4.25;3.88;;;;;;;;;;10451894;28;20272;-73
2023/10/24 16:52:56;;;;;;;4.85;4.45;;;;;;;;;;10449070;28;20245;-73
2023/10/24 16:57:57;;;;;;;4.68;4.25;;;;;;;;;;10446998;28;20218;-73
2023/10/24 17:02:58;;;;;;;4.53;4.22;;;;;;;;;;10448812;28;20218;-73
2023/10/24 17:08:00;;;;;;;5.07;4.78;;;;;;;;;;10443307;28;20219;-74
2023/10/24 17:13:01;;;;;;;7.38;5.30;;;;;;;;;;10445118;28;20225;-77
2023/10/24 17:18:02;;;;;;;8.05;7.10;;;;;;;;;;10436904;28;20202;-73
2023/10/24 17:23:03;;;;;;;6.25;5.00;;;;;;;;;;10432540;28;20236;-74
2023/10/24 17:28:05;;;;;;;8.48;6.22;;;;;;;;;;10426080;28;20269;-73
2023/10/24 17:33:06;;;;;;;6.85;6.25;;;;;;;;;;10445917;28;20283;-76
2023/10/24 17:38:07;;;;;;;6.72;6.13;;;;;;;;;;10429926;28;20212;-74
2023/10/24 17:43:08;;;;;;;5.90;5.47;;;;;;;;;;10437252;28;20590;-73
2023/10/24 17:48:09;;;;;;;7.80;6.28;;;;;;;;;;10447670;28;20203;-73
2023/10/24 17:53:13;;;;;;;8.23;5.70;;;;;;;;;;10443681;28;20206;-73
2023/10/24 17:58:14;;;;;;;7.47;6.70;;;;;;;;;;10435812;28;20526;-73
2023/10/24 18:03:15;;;;;;;6.72;6.13;;;;;;;;;;10440510;28;20260;-73
2023/10/24 18:08:16;;;;;;;5.90;5.38;;;;;;;;;;10427550;28;20358;-73
2023/10/24 18:13:17;;;;;;;7.35;6.63;;;;;;;;;;10430280;28;20682;-74
2023/10/24 18:18:18;;;;;;;9.50;6.22;;;;;;;;;;10434840;28;20313;-73
2023/10/24 18:23:19;;;;;;;6.78;6.15;;;;;;;;;;10450600;28;20688;-73
2023/10/24 18:28:21;;;;;;;6.07;5.55;;;;;;;;;;10432999;28;20226;-73
2023/10/24 18:33:23;;;;;;;6.72;5.88;;;;;;;;;;10428038;28;20241;-73
2023/10/24 18:38:24;;;;;;;7.00;6.35;;;;;;;;;;10425157;28;20216;-74
2023/10/24 18:43:25;;;;;;;7.03;6.40;;;;;;;;;;10418254;28;20587;-73
2023/10/24 18:48:26;;;;;;;6.72;6.03;;;;;;;;;;10444316;28;20719;-74
2023/10/24 18:53:28;;;;;;;8.52;7.22;;;;;;;;;;10433447;28;20531;-73
2023/10/24 18:58:29;;;;;;;7.40;6.43;;;;;;;;;;10431246;28;20691;-73
2023/10/24 19:03:31;;;;;;;8.20;6.82;;;;;;;;;;10426180;28;20225;-74
2023/10/24 19:08:32;;;;;;;7.88;7.03;;;;;;;;;;10448390;28;20222;-73
2023/10/24 19:13:35;;;;;;;7.10;6.40;;;;;;;;;;10410582;28;20775;-73
2023/10/24 19:18:36;;;;;;;7.15;6.55;;;;;;;;;;10445494;28;20275;-73
2023/10/24 19:23:37;;;;;;;8.02;7.18;;;;;;;;;;10454818;28;20582;-72
2023/10/24 19:28:39;;;;;;;9.40;7.75;;;;;;;;;;10432968;28;20641;-73
2023/10/24 19:33:40;;;;;;;7.90;7.10;;;;;;;;;;10432864;28;20634;-73
2023/10/24 19:38:42;;;;;;;8.38;7.22;;;;;;;;;;10440235;28;20202;-73
2023/10/24 19:43:43;;;;;;;8.10;6.82;;;;;;;;;;10451920;28;20214;-73
2023/10/24 19:48:44;;;;;;;9.07;7.22;;;;;;;;;;10439203;28;20223;-73
2023/10/24 19:53:45;;;;;;;10.18;8.40;;;;;;;;;;10440248;28;20407;-77
2023/10/24 19:58:48;;;;;;;11.60;8.65;;;;;;;;;;10428270;28;20222;-74
2023/10/24 20:03:49;;;;;;;9.23;7.82;;;;;;;;;;10441241;28;20214;-73
2023/10/24 20:08:51;;;;;;;7.80;7.15;;;;;;;;;;10438679;28;20703;-73
2023/10/24 20:13:52;;;;;;;7.70;6.18;;;;;;;;;;10440441;28;20221;-72
2023/10/24 20:18:53;;;;;;;10.85;7.55;;;;;;;;;;10441090;28;20241;-72
2023/10/24 20:23:55;;;;;;;7.43;6.70;;;;;;;;;;10464850;28;20715;-75
2023/10/24 20:28:58;;;;;;;7.80;7.03;;;;;;;;;;10425650;28;20650;-72
2023/10/24 20:33:59;;;;;;;10.20;6.70;;;;;;;;;;10465683;28;20214;-73
2023/10/24 20:39:00;;;;;;;6.85;6.32;;;;;;;;;;10461698;28;20218;-72
2023/10/24 20:44:02;;;;;;;6.97;6.30;;;;;;;;;;10449000;28;20222;-73
2023/10/24 20:49:03;;;;;;;7.65;6.30;;;;;;;;;;10425107;28;20214;-73
2023/10/24 20:54:04;;;;;;;7.10;6.50;;;;;;;;;;10462459;28;20214;-73
2023/10/24 20:59:05;;;;;;;6.38;5.78;;;;;;;;;;10451629;28;20233;-72
2023/10/24 21:04:06;;;;;;;6.88;6.28;;;;;;;;;;10433551;28;20494;-73
2023/10/24 21:09:08;;;;;;;5.75;5.18;;;;;;;;;;10454378;28;20681;-74
2023/10/24 21:14:09;;;;;;;8.02;5.63;;;;;;;;;;10458106;28;20219;-73
2023/10/24 21:19:10;;;;;;;7.00;5.72;;;;;;;;;;10445030;28;20218;-74
2023/10/24 21:24:11;;;;;;;8.80;5.95;;;;;;;;;;10462482;28;20245;-73
2023/10/24 21:29:12;;;;;;;6.55;5.95;;;;;;;;;;10458238;28;20236;-72
2023/10/24 21:34:13;;;;;;;10.05;6.30;;;;;;;;;;10443845;28;21495;-73
2023/10/24 21:39:14;;;;;;;11.27;5.18;;;;;;;;;;10459655;28;20340;-73
2023/10/24 21:44:16;;;;;;;7.95;5.88;;;;;;;;;;10454952;28;20287;-73
2023/10/24 21:49:17;;;;;;;5.05;4.72;;;;;;;;;;10446127;28;20210;-73
2023/10/24 21:54:18;;;;;;;5.13;4.72;;;;;;;;;;10447258;28;20231;-73
2023/10/24 21:59:19;;;;;;;4.18;3.58;;;;;;;;;;10458538;28;20349;-73
2023/10/24 22:04:20;;;;;;;3.15;3.05;;;;;;;;;;10433880;28;20210;-73
2023/10/24 22:09:21;;;;;;;2.45;2.28;;;;;;;;;;10444937;28;20210;-74
2023/10/24 22:14:22;;;;;;;1.92;1.77;;;;;;;;;;10457909;28;20221;-74
2023/10/24 22:19:23;;;;;;;1.30;1.30;;;;;;;;;;10455737;28;20387;-72
2023/10/24 22:24:24;;;;;;;1.85;1.42;;;;;;;;;;10437976;28;20210;-72
2023/10/24 22:29:25;;;;;;;1.38;1.38;;;;;;;;;;10438703;28;20245;-72
2023/10/24 22:34:26;;;;;;;1.63;1.52;;;;;;;;;;10457073;28;20209;-73
2023/10/24 22:39:27;;;;;;;1.88;1.30;;;;;;;;;;10457106;28;20488;-72
2023/10/24 22:44:28;;;;;;;1.63;1.55;;;;;;;;;;10424658;28;20245;-72
2023/10/24 22:49:29;;;;;;;1.10;1.10;;;;;;;;;;10424172;28;20209;-73
2023/10/24 22:54:31;;;;;;;4.55;1.63;;;;;;;;;;10435628;28;20240;-73
2023/10/24 22:59:32;;;;;;;1.30;1.20;;;;;;;;;;10456901;28;20217;-72
2023/10/24 23:04:33;;;;;;;1.20;1.10;;;;;;;;;;10437789;28;20762;-73
2023/10/24 23:09:35;;;;;;;1.63;1.35;;;;;;;;;;10454275;28;20222;-75
2023/10/24 23:14:36;;;;;;;0.95;0.95;;;;;;;;;;10412440;28;20214;-72
2023/10/24 23:19:38;;;;;;;0.82;0.82;;;;;;;;;;10439425;28;20272;-73
2023/10/24 23:24:39;;;;;;;1.40;1.40;;;;;;;;;;10436807;28;20249;-74
2023/10/24 23:29:40;;;;;;;1.23;1.23;;;;;;;;;;10437168;28;20217;-72
2023/10/24 23:34:41;;;;;;;1.08;1.08;;;;;;;;;;10452974;28;20326;-72
2023/10/24 23:39:42;;;;;;;1.73;1.13;;;;;;;;;;10423022;28;20218;-73
2023/10/24 23:44:43;;;;;;;1.02;1.02;;;;;;;;;;10448410;28;20761;-73
2023/10/24 23:49:44;;;;;;;1.10;1.10;;;;;;;;;;10456043;28;20489;-72
2023/10/24 23:54:45;;;;;;;1.83;1.00;;;;;;;;;;10431768;28;20594;-72
2023/10/24 23:59:46;;;;;;;1.55;1.45;;;;;;;;;;10437331;28;20213;-72
